Time;durP1;ratioP1;P1;durP2;ratioP2;P2;SDS_P1;SDS_P2;PMS_P1;PMS_P2;Temp;Humidity;BMP_temperature;BMP_pressure;BME280_temperature;BME280_humidity;BME280_pressure;Samples;Min_cycle;Max_cycle;Signal;HPM_P1;HPM_P2
2023/08/30 00:00:10;;;;;;;0.40;0.40;;;14.80;99.90;;;;;;4447776;32;20084;-90
2023/08/30 00:02:36;;;;;;;0.65;0.60;;;14.70;99.90;;;;;;4447045;32;20073;-90
2023/08/30 00:05:03;;;;;;;0.55;0.55;;;14.80;99.90;;;;;;4450344;32;20093;-90
2023/08/30 00:07:29;;;;;;;0.30;0.30;;;14.80;99.90;;;;;;4445676;32;20876;-90
2023/08/30 00:09:55;;;;;;;0.30;0.30;;;14.70;99.90;;;;;;4447941;32;20109;-90
2023/08/30 00:12:21;;;;;;;0.32;0.32;;;14.70;99.90;;;;;;4448641;32;20081;-89
2023/08/30 00:14:47;;;;;;;0.50;0.50;;;14.70;99.90;;;;;;4449429;32;20115;-90
2023/08/30 00:17:13;;;;;;;0.37;0.37;;;14.70;99.90;;;;;;4447159;32;20097;-90
2023/08/30 00:19:38;;;;;;;0.30;0.30;;;14.70;99.90;;;;;;4444316;32;20085;-90
2023/08/30 00:22:07;;;;;;;0.30;0.30;;;14.70;99.90;;;;;;4446471;32;20072;-89
2023/08/30 00:24:33;;;;;;;0.50;0.50;;;14.60;99.90;;;;;;4446159;32;20109;-89
2023/08/30 00:26:58;;;;;;;0.55;0.55;;;14.70;99.90;;;;;;4447536;32;20064;-90
2023/08/30 00:29:25;;;;;;;0.65;0.60;;;14.70;99.90;;;;;;4445756;32;20087;-89
2023/08/30 00:31:50;;;;;;;0.37;0.37;;;14.60;99.90;;;;;;4445993;32;20136;-89
2023/08/30 00:34:16;;;;;;;0.40;0.40;;;14.60;99.90;;;;;;4443225;32;20100;-89
2023/08/30 00:36:41;;;;;;;0.40;0.40;;;14.60;99.90;;;;;;4444738;32;20065;-89
2023/08/30 00:39:08;;;;;;;0.40;0.40;;;14.60;99.90;;;;;;4445370;32;20455;-88
2023/08/30 00:41:34;;;;;;;0.40;0.40;;;14.70;99.90;;;;;;4446072;32;20069;-89
2023/08/30 00:44:00;;;;;;;0.40;0.40;;;14.70;99.90;;;;;;4445989;32;20097;-89
2023/08/30 00:46:26;;;;;;;0.40;0.40;;;14.70;99.90;;;;;;4447637;32;20075;-89
2023/08/30 00:48:51;;;;;;;0.57;0.52;;;14.70;99.90;;;;;;4447352;32;20093;-89
2023/08/30 00:51:17;;;;;;;0.30;0.30;;;14.70;99.90;;;;;;4446715;32;20088;-89
2023/08/30 00:53:44;;;;;;;0.30;0.30;;;14.70;99.90;;;;;;4447303;32;20116;-88
2023/08/30 00:56:09;;;;;;;0.57;0.57;;;14.80;99.90;;;;;;4445790;32;20442;-87
2023/08/30 00:58:35;;;;;;;0.40;0.40;;;14.70;99.90;;;;;;4446410;32;20092;-87
2023/08/30 01:01:01;;;;;;;0.30;0.30;;;14.70;99.90;;;;;;4443967;32;20197;-87
2023/08/30 01:03:27;;;;;;;0.40;0.40;;;14.70;99.90;;;;;;4443182;32;20104;-86
2023/08/30 01:05:53;;;;;;;0.40;0.40;;;14.70;99.90;;;;;;4445132;32;20094;-86
2023/08/30 01:08:19;;;;;;;0.40;0.40;;;14.70;99.90;;;;;;4443038;32;20649;-86
2023/08/30 01:11:11;;;;;;;0.40;0.40;;;14.60;99.90;;;;;;4445327;32;20114;-87
2023/08/30 01:13:44;;;;;;;0.40;0.40;;;14.60;99.90;;;;;;4443842;32;20080;-87
2023/08/30 01:16:10;;;;;;;0.40;0.40;;;14.60;99.90;;;;;;4448475;32;20557;-86
2023/08/30 01:18:39;;;;;;;0.32;0.32;;;14.60;99.90;;;;;;4444107;32;20100;-87
2023/08/30 01:21:08;;;;;;;0.57;0.50;;;14.60;99.90;;;;;;4441172;32;20090;-87
2023/08/30 01:23:58;;;;;;;0.50;0.50;;;14.60;99.90;;;;;;4445831;32;20069;-89
2023/08/30 01:26:36;;;;;;;0.35;0.35;;;14.60;99.90;;;;;;4444118;32;20098;-89
2023/08/30 01:29:04;;;;;;;0.50;0.50;;;14.60;99.90;;;;;;4445626;32;20097;-88
2023/08/30 01:31:33;;;;;;;0.30;0.30;;;14.50;99.90;;;;;;4445251;32;20088;-89
2023/08/30 01:34:02;;;;;;;0.30;0.30;;;14.50;99.90;;;;;;4450215;32;20076;-89
2023/08/30 01:36:29;;;;;;;1.27;0.65;;;14.40;99.90;;;;;;4450237;32;20102;-89
2023/08/30 01:38:56;;;;;;;0.37;0.37;;;14.40;99.90;;;;;;4449975;32;20081;-89
2023/08/30 01:41:23;;;;;;;0.40;0.40;;;14.50;99.90;;;;;;4447778;32;20134;-88
2023/08/30 01:43:51;;;;;;;0.50;0.50;;;14.40;99.90;;;;;;4449893;32;20132;-88
2023/08/30 01:46:19;;;;;;;0.30;0.30;;;14.40;99.90;;;;;;4451746;32;20100;-89
2023/08/30 01:48:46;;;;;;;0.40;0.40;;;14.40;99.90;;;;;;4451555;32;20122;-88
2023/08/30 01:51:12;;;;;;;0.40;0.40;;;14.50;99.90;;;;;;4458114;32;20069;-88
2023/08/30 01:53:39;;;;;;;0.30;0.30;;;14.40;99.90;;;;;;4450980;32;20207;-88
2023/08/30 01:56:05;;;;;;;0.62;0.62;;;14.40;99.90;;;;;;4455670;32;20516;-88
2023/08/30 01:58:30;;;;;;;0.32;0.32;;;14.40;99.90;;;;;;4454453;32;20093;-87
2023/08/30 02:00:56;;;;;;;0.30;0.30;;;14.40;99.90;;;;;;4452066;32;20127;-89
2023/08/30 02:03:22;;;;;;;0.40;0.40;;;14.40;99.90;;;;;;4454053;32;20603;-90
2023/08/30 02:06:11;;;;;;;0.40;0.40;;;14.30;99.90;;;;;;4449957;27;20194;-62
2023/08/30 02:08:44;;;;;;;0.32;0.32;;;14.40;99.90;;;;;;4434019;32;20089;-60
2023/08/30 02:11:14;;;;;;;0.43;0.43;;;14.40;99.90;;;;;;4446216;32;20089;-60
2023/08/30 02:13:42;;;;;;;0.40;0.40;;;14.40;99.90;;;;;;4431109;32;20158;-61
2023/08/30 02:16:09;;;;;;;0.30;0.30;;;14.40;99.90;;;;;;4460832;32;20115;-60
2023/08/30 02:18:36;;;;;;;0.40;0.40;;;14.30;99.90;;;;;;4467725;32;20085;-60
2023/08/30 02:21:02;;;;;;;0.50;0.50;;;14.30;99.90;;;;;;4450469;32;20102;-60
2023/08/30 02:23:27;;;;;;;0.80;0.52;;;14.30;99.90;;;;;;4467540;32;20178;-60
2023/08/30 02:25:55;;;;;;;0.30;0.30;;;14.30;99.90;;;;;;4465751;32;20081;-60
2023/08/30 02:28:21;;;;;;;0.40;0.40;;;14.20;99.90;;;;;;4466859;32;20058;-60
2023/08/30 02:30:46;;;;;;;0.57;0.57;;;14.20;99.90;;;;;;4452945;32;20358;-60
2023/08/30 02:33:12;;;;;;;0.30;0.30;;;14.30;99.90;;;;;;4466491;32;20105;-59
2023/08/30 02:35:37;;;;;;;0.45;0.40;;;14.30;99.90;;;;;;4466366;32;20058;-59
2023/08/30 02:38:04;;;;;;;0.30;0.30;;;14.30;99.90;;;;;;4467259;32;20021;-59
2023/08/30 02:40:31;;;;;;;0.40;0.40;;;14.20;99.90;;;;;;4464825;32;20113;-60
2023/08/30 02:42:56;;;;;;;0.32;0.32;;;14.10;99.90;;;;;;4465252;32;20083;-60
2023/08/30 02:45:22;;;;;;;0.30;0.30;;;14.10;99.90;;;;;;4466083;32;20088;-59
2023/08/30 02:47:48;;;;;;;0.35;0.35;;;14.20;99.90;;;;;;4463905;32;20118;-60
2023/08/30 02:50:14;;;;;;;0.30;0.30;;;14.30;99.90;;;;;;4445139;32;20080;-60
2023/08/30 02:52:39;;;;;;;1.77;0.50;;;14.30;99.90;;;;;;4463622;32;20107;-60
2023/08/30 02:55:05;;;;;;;0.50;0.50;;;14.20;99.90;;;;;;4465218;32;20058;-59
2023/08/30 02:57:31;;;;;;;0.40;0.40;;;14.10;99.90;;;;;;4465342;32;20053;-60
2023/08/30 02:59:56;;;;;;;0.75;0.47;;;14.10;99.90;;;;;;4448953;32;20097;-60
2023/08/30 03:02:22;;;;;;;0.60;0.60;;;14.10;99.90;;;;;;4464203;32;20084;-58
2023/08/30 03:04:47;;;;;;;0.40;0.40;;;14.20;99.90;;;;;;4466708;32;20077;-60
2023/08/30 03:07:13;;;;;;;0.50;0.50;;;14.10;99.90;;;;;;4465453;32;20109;-59
2023/08/30 03:09:39;;;;;;;0.30;0.30;;;14.10;99.90;;;;;;4465325;32;20041;-59
2023/08/30 03:12:04;;;;;;;0.30;0.30;;;14.00;99.90;;;;;;4463656;32;20187;-59
2023/08/30 03:14:30;;;;;;;0.40;0.40;;;14.00;99.90;;;;;;4467495;32;20078;-60
2023/08/30 03:16:55;;;;;;;0.50;0.50;;;14.10;99.90;;;;;;4465332;32;20037;-60
2023/08/30 03:19:21;;;;;;;0.32;0.32;;;14.10;99.90;;;;;;4464217;32;20088;-59
2023/08/30 03:21:46;;;;;;;0.73;0.73;;;14.10;99.90;;;;;;4497896;26;20052;-59
2023/08/30 03:24:13;;;;;;;0.40;0.40;;;14.00;99.90;;;;;;4465174;32;20065;-59
2023/08/30 03:26:40;;;;;;;0.30;0.30;;;13.90;99.90;;;;;;4464119;32;20085;-59
2023/08/30 03:29:06;;;;;;;0.47;0.47;;;13.90;99.90;;;;;;4466709;32;20065;-59
2023/08/30 03:31:31;;;;;;;0.40;0.40;;;14.00;99.90;;;;;;4464492;32;20098;-60
2023/08/30 03:33:57;;;;;;;0.40;0.40;;;14.10;99.90;;;;;;4464915;32;20049;-60
2023/08/30 03:36:22;;;;;;;0.28;0.28;;;14.10;99.90;;;;;;4459634;26;20157;-74
2023/08/30 03:38:48;;;;;;;0.30;0.30;;;14.20;99.90;;;;;;4422939;32;20402;-74
2023/08/30 03:41:14;;;;;;;0.30;0.30;;;14.20;99.90;;;;;;4422910;32;20092;-75
2023/08/30 03:43:39;;;;;;;0.40;0.40;;;14.20;99.90;;;;;;4424591;32;20085;-75
2023/08/30 03:46:05;;;;;;;0.40;0.40;;;14.10;99.90;;;;;;4435816;32;20049;-75
2023/08/30 03:48:31;;;;;;;0.43;0.43;;;14.10;99.90;;;;;;4448306;26;20089;-76
2023/08/30 03:50:57;;;;;;;0.75;0.32;;;14.00;99.90;;;;;;4424840;32;20148;-77
2023/08/30 03:53:24;;;;;;;0.30;0.30;;;13.80;99.90;;;;;;4422217;32;20086;-77
2023/08/30 03:55:50;;;;;;;0.28;0.28;;;13.90;99.90;;;;;;4424160;32;20127;-76
2023/08/30 03:58:16;;;;;;;0.40;0.40;;;13.90;99.90;;;;;;4449255;26;20102;-69
2023/08/30 04:00:41;;;;;;;0.32;0.32;;;13.90;99.90;;;;;;4421864;32;20119;-73
2023/08/30 04:03:09;;;;;;;0.40;0.40;;;13.90;99.90;;;;;;4413567;32;20089;-74
2023/08/30 04:05:35;;;;;;;0.30;0.30;;;13.90;99.90;;;;;;4415166;32;20225;-72
2023/08/30 04:08:02;;;;;;;0.30;0.30;;;13.90;99.90;;;;;;4414547;32;20090;-73
2023/08/30 04:10:27;;;;;;;0.30;0.30;;;14.00;99.90;;;;;;4416029;32;20061;-72
2023/08/30 04:12:53;;;;;;;0.40;0.40;;;14.00;99.90;;;;;;4413256;32;20176;-74
2023/08/30 04:15:18;;;;;;;0.80;0.35;;;14.10;99.90;;;;;;4416342;32;20089;-73
2023/08/30 04:17:44;;;;;;;5.40;0.62;;;14.20;99.90;;;;;;4414131;32;20062;-72
2023/08/30 04:20:10;;;;;;;0.55;0.52;;;14.10;99.90;;;;;;4417238;32;20066;-73
2023/08/30 04:22:36;;;;;;;0.37;0.37;;;14.10;99.90;;;;;;4411159;32;20085;-74
2023/08/30 04:25:01;;;;;;;0.32;0.32;;;14.10;99.90;;;;;;4414040;32;20144;-73
2023/08/30 04:27:27;;;;;;;0.30;0.30;;;14.00;99.90;;;;;;4411903;32;20132;-74
2023/08/30 04:29:53;;;;;;;0.40;0.40;;;14.00;99.90;;;;;;4414472;32;20133;-74
2023/08/30 04:32:18;;;;;;;0.32;0.32;;;13.90;99.90;;;;;;4413722;32;20094;-72
2023/08/30 04:34:44;;;;;;;0.30;0.30;;;14.00;99.90;;;;;;4414034;32;20376;-73
2023/08/30 04:37:09;;;;;;;0.90;0.50;;;14.00;99.90;;;;;;4416329;32;20090;-73
2023/08/30 04:39:35;;;;;;;8.68;0.93;;;14.10;99.90;;;;;;4414851;32;20070;-72
2023/08/30 04:42:02;;;;;;;0.40;0.40;;;14.20;99.90;;;;;;4415127;32;20077;-72
2023/08/30 04:44:28;;;;;;;0.50;0.50;;;14.20;99.90;;;;;;4414314;32;20090;-73
2023/08/30 04:46:54;;;;;;;0.40;0.40;;;14.30;99.90;;;;;;4413998;32;20082;-73
2023/08/30 04:49:20;;;;;;;0.40;0.40;;;14.30;99.90;;;;;;4415768;32;20066;-70
2023/08/30 04:51:45;;;;;;;0.37;0.37;;;14.30;99.90;;;;;;4414396;32;20583;-72
2023/08/30 04:54:11;;;;;;;0.40;0.40;;;14.30;99.90;;;;;;4413240;32;20129;-74
2023/08/30 04:56:36;;;;;;;0.57;0.40;;;14.40;99.90;;;;;;4415422;32;21652;-72
2023/08/30 04:59:03;;;;;;;0.30;0.30;;;14.40;99.90;;;;;;4413325;32;20082;-72
2023/08/30 05:01:29;;;;;;;0.73;0.60;;;14.40;99.90;;;;;;4411515;32;20122;-72
2023/08/30 05:03:55;;;;;;;0.40;0.40;;;14.40;99.90;;;;;;4412127;32;20313;-72
2023/08/30 05:06:21;;;;;;;0.45;0.45;;;14.40;99.90;;;;;;4410422;32;20449;-76
2023/08/30 05:08:46;;;;;;;0.30;0.30;;;14.40;99.90;;;;;;4409651;32;20069;-73
2023/08/30 05:11:12;;;;;;;0.50;0.50;;;14.50;99.90;;;;;;4409564;32;20113;-74
2023/08/30 05:13:37;;;;;;;0.40;0.40;;;14.40;99.90;;;;;;4412042;32;20059;-74
2023/08/30 05:16:03;;;;;;;0.30;0.30;;;14.50;99.90;;;;;;4415552;32;20098;-72
2023/08/30 05:18:28;;;;;;;0.50;0.50;;;14.60;99.90;;;;;;4407921;32;20081;-70
2023/08/30 05:20:54;;;;;;;0.45;0.45;;;14.70;99.90;;;;;;4410692;32;20077;-72
2023/08/30 05:23:19;;;;;;;0.52;0.52;;;14.70;99.90;;;;;;4415212;32;20081;-72
2023/08/30 05:25:46;;;;;;;1.27;1.12;;;14.80;99.90;;;;;;4412614;32;20078;-75
2023/08/30 05:28:12;;;;;;;0.50;0.50;;;14.80;99.90;;;;;;4399294;32;20227;-74
2023/08/30 05:30:41;;;;;;;0.50;0.50;;;14.80;99.90;;;;;;4399972;32;20445;-75
2023/08/30 05:33:07;;;;;;;0.37;0.37;;;14.80;99.90;;;;;;4396887;32;20082;-75
2023/08/30 05:35:33;;;;;;;0.30;0.30;;;14.90;99.90;;;;;;4403463;32;20086;-74
2023/08/30 05:37:59;;;;;;;0.50;0.50;;;14.80;99.90;;;;;;4402102;32;20568;-75
2023/08/30 05:40:26;;;;;;;0.43;0.43;;;14.80;99.90;;;;;;4401279;32;20155;-76
2023/08/30 05:42:52;;;;;;;0.50;0.50;;;14.90;99.90;;;;;;4402375;32;20065;-76
2023/08/30 05:45:18;;;;;;;0.60;0.60;;;15.00;99.90;;;;;;4401857;32;20116;-75
2023/08/30 05:47:44;;;;;;;0.30;0.30;;;15.10;99.90;;;;;;4399882;32;20172;-75
2023/08/30 05:50:10;;;;;;;0.40;0.40;;;15.10;99.90;;;;;;4394072;32;22051;-75
2023/08/30 05:52:40;;;;;;;0.40;0.40;;;15.10;99.90;;;;;;4391014;32;20110;-76
2023/08/30 05:55:08;;;;;;;0.40;0.40;;;15.10;99.90;;;;;;4392065;32;20160;-75
2023/08/30 05:57:34;;;;;;;0.30;0.30;;;15.10;99.90;;;;;;4386655;32;20140;-76
2023/08/30 06:00:00;;;;;;;1.95;0.40;;;15.20;99.90;;;;;;4387797;32;20086;-76
2023/08/30 06:02:26;;;;;;;0.50;0.50;;;15.20;99.90;;;;;;4387401;32;20973;-75
2023/08/30 06:04:52;;;;;;;0.40;0.40;;;15.20;99.90;;;;;;4382441;32;20110;-75
2023/08/30 06:07:17;;;;;;;0.30;0.30;;;15.20;99.90;;;;;;4387238;32;20151;-77
2023/08/30 06:09:44;;;;;;;0.40;0.40;;;15.20;99.90;;;;;;4395849;32;20254;-76
2023/08/30 06:12:09;;;;;;;0.32;0.32;;;15.20;99.90;;;;;;4387274;32;20109;-77
2023/08/30 06:14:35;;;;;;;0.62;0.57;;;15.30;99.90;;;;;;4390817;32;20108;-76
2023/08/30 06:17:01;;;;;;;0.37;0.37;;;15.40;99.90;;;;;;4379482;32;20610;-76
2023/08/30 06:19:26;;;;;;;0.40;0.40;;;15.50;99.90;;;;;;4380033;32;20082;-76
2023/08/30 06:21:52;;;;;;;0.37;0.37;;;15.50;99.90;;;;;;4392128;32;20118;-76
2023/08/30 06:24:17;;;;;;;0.40;0.40;;;15.60;99.90;;;;;;4384158;32;20548;-77
2023/08/30 06:26:43;;;;;;;0.40;0.40;;;15.60;99.90;;;;;;4384783;32;20521;-75
2023/08/30 06:29:09;;;;;;;0.40;0.40;;;15.60;99.90;;;;;;4392318;32;20147;-78
2023/08/30 06:31:35;;;;;;;0.40;0.40;;;15.60;99.90;;;;;;4396480;32;20737;-77
2023/08/30 06:34:00;;;;;;;0.40;0.40;;;15.60;99.90;;;;;;4398594;32;20085;-77
2023/08/30 06:36:26;;;;;;;0.40;0.40;;;15.60;99.90;;;;;;4398207;32;20085;-77
2023/08/30 06:38:51;;;;;;;0.40;0.40;;;15.70;99.90;;;;;;4384970;32;20147;-77
2023/08/30 06:41:17;;;;;;;0.60;0.60;;;15.70;99.90;;;;;;4389077;32;20138;-76
2023/08/30 06:43:42;;;;;;;0.45;0.45;;;15.70;99.90;;;;;;4379207;32;21336;-76
2023/08/30 06:46:08;;;;;;;2.10;0.55;;;15.70;99.90;;;;;;4386403;32;20180;-76
2023/08/30 06:48:33;;;;;;;0.50;0.50;;;15.80;99.90;;;;;;4385894;32;20144;-77
2023/08/30 06:50:59;;;;;;;0.40;0.40;;;15.80;99.90;;;;;;4382680;32;20077;-77
2023/08/30 06:53:27;;;;;;;0.40;0.40;;;15.90;99.90;;;;;;4380213;32;20097;-76
2023/08/30 06:56:01;;;;;;;0.50;0.50;;;16.00;99.90;;;;;;4382617;32;20106;-78
2023/08/30 06:58:26;;;;;;;0.30;0.30;;;16.00;99.90;;;;;;4377144;32;20081;-76
2023/08/30 07:00:52;;;;;;;0.35;0.35;;;16.10;99.90;;;;;;4379529;32;20159;-77
2023/08/30 07:03:18;;;;;;;0.47;0.47;;;16.10;99.90;;;;;;4386236;32;20179;-76
2023/08/30 07:05:43;;;;;;;1.27;0.82;;;16.20;99.90;;;;;;4397157;32;20568;-77
2023/08/30 07:08:09;;;;;;;0.52;0.52;;;16.20;99.90;;;;;;4395566;32;20085;-77
2023/08/30 07:10:35;;;;;;;8.65;2.25;;;16.30;99.90;;;;;;4392294;32;20473;-77
2023/08/30 07:13:00;;;;;;;0.62;0.60;;;16.40;99.90;;;;;;4381354;32;20846;-77
2023/08/30 07:15:27;;;;;;;1.30;0.62;;;16.30;99.90;;;;;;4391332;32;20092;-77
2023/08/30 07:17:52;;;;;;;0.52;0.52;;;16.40;99.90;;;;;;4386953;32;20093;-76
2023/08/30 07:20:18;;;;;;;0.40;0.40;;;16.30;99.90;;;;;;4387673;32;20174;-76
2023/08/30 07:22:43;;;;;;;0.40;0.40;;;16.30;99.90;;;;;;4385501;32;20394;-76
2023/08/30 07:25:10;;;;;;;0.40;0.40;;;16.40;99.90;;;;;;4377671;32;20101;-76
2023/08/30 07:27:36;;;;;;;0.30;0.30;;;16.20;99.90;;;;;;4382166;32;20520;-75
2023/08/30 07:30:01;;;;;;;0.60;0.40;;;16.30;99.90;;;;;;4385958;32;20144;-76
2023/08/30 07:32:27;;;;;;;0.40;0.40;;;16.40;99.90;;;;;;4374518;32;20105;-76
2023/08/30 07:34:52;;;;;;;0.40;0.40;;;16.50;99.90;;;;;;4369636;32;20105;-76
2023/08/30 07:37:20;;;;;;;0.30;0.30;;;16.40;99.90;;;;;;4377933;32;20909;-75
2023/08/30 07:39:45;;;;;;;0.88;0.85;;;16.40;99.90;;;;;;4385211;32;20077;-76
2023/08/30 07:42:11;;;;;;;0.30;0.30;;;16.40;99.90;;;;;;4377804;32;20837;-72
2023/08/30 07:44:36;;;;;;;0.40;0.40;;;16.30;99.90;;;;;;4374729;32;20138;-74
2023/08/30 07:47:02;;;;;;;0.32;0.32;;;16.30;99.90;;;;;;4379459;32;20117;-74
2023/08/30 07:49:28;;;;;;;0.52;0.50;;;16.40;99.90;;;;;;4396529;32;21142;-73
2023/08/30 07:51:53;;;;;;;1.25;0.40;;;16.50;99.90;;;;;;4380841;32;20161;-73
2023/08/30 07:54:19;;;;;;;0.62;0.40;;;16.60;99.90;;;;;;4383478;32;20711;-73
2023/08/30 07:56:44;;;;;;;0.50;0.50;;;16.60;99.90;;;;;;4380330;32;20477;-73
2023/08/30 07:59:10;;;;;;;0.40;0.40;;;16.60;99.90;;;;;;4379007;32;20093;-75
2023/08/30 08:01:35;;;;;;;0.40;0.40;;;16.60;99.90;;;;;;4382871;32;20888;-74
2023/08/30 08:04:01;;;;;;;0.32;0.32;;;16.70;99.90;;;;;;4387507;32;20111;-74
2023/08/30 08:06:26;;;;;;;0.50;0.50;;;16.70;99.90;;;;;;4392841;32;20089;-72
2023/08/30 08:08:53;;;;;;;0.40;0.40;;;16.70;99.90;;;;;;4392114;32;20505;-74
2023/08/30 08:11:18;;;;;;;0.40;0.40;;;16.60;99.90;;;;;;4431345;27;20097;-59
2023/08/30 08:13:44;;;;;;;0.62;0.45;;;16.60;99.90;;;;;;4421587;32;20798;-61
2023/08/30 08:16:09;;;;;;;0.55;0.52;;;16.70;99.90;;;;;;4425841;32;20097;-61
2023/08/30 08:18:35;;;;;;;0.30;0.30;;;16.80;99.90;;;;;;4427494;32;20085;-61
2023/08/30 08:21:00;;;;;;;0.50;0.50;;;16.80;99.90;;;;;;4429931;32;20113;-62
2023/08/30 08:23:27;;;;;;;0.40;0.40;;;17.00;99.90;;;;;;4433963;32;20093;-62
2023/08/30 08:26:02;;;;;;;0.30;0.30;;;17.10;99.90;;;;;;4420037;32;20081;-62
2023/08/30 08:28:28;;;;;;;0.40;0.40;;;17.20;99.90;;;;;;4388409;32;20508;-62
2023/08/30 08:30:54;;;;;;;0.40;0.40;;;17.20;99.90;;;;;;4399458;32;20225;-61
2023/08/30 08:33:22;;;;;;;0.30;0.30;;;17.30;99.90;;;;;;4372639;32;20104;-62
2023/08/30 08:35:49;;;;;;;0.50;0.50;;;17.30;99.90;;;;;;4383953;32;20454;-61
2023/08/30 08:38:14;;;;;;;0.40;0.40;;;17.30;99.90;;;;;;4387808;32;20584;-61
2023/08/30 08:40:40;;;;;;;0.30;0.30;;;17.30;99.90;;;;;;4404464;32;20085;-61
2023/08/30 08:43:06;;;;;;;0.30;0.30;;;17.40;99.90;;;;;;4397861;32;20949;-61
2023/08/30 08:45:36;;;;;;;0.20;0.20;;;17.50;99.90;;;;;;4386666;32;20158;-61
2023/08/30 08:48:04;;;;;;;0.30;0.30;;;17.50;99.90;;;;;;4400995;32;20085;-62
2023/08/30 08:50:30;;;;;;;0.40;0.40;;;17.50;99.90;;;;;;4391155;32;20162;-61
2023/08/30 08:52:56;;;;;;;0.40;0.40;;;17.60;99.90;;;;;;4408910;32;20725;-60
2023/08/30 08:55:22;;;;;;;0.20;0.20;;;17.60;99.90;;;;;;4391073;32;20285;-59
2023/08/30 08:57:48;;;;;;;0.30;0.30;;;17.60;99.90;;;;;;4380602;32;20085;-61
2023/08/30 09:00:16;;;;;;;0.30;0.30;;;17.60;99.90;;;;;;4395400;32;20285;-58
2023/08/30 09:02:42;;;;;;;0.95;0.95;;;17.60;99.90;;;;;;4393624;32;20596;-62
2023/08/30 09:05:08;;;;;;;0.40;0.40;;;17.80;99.90;;;;;;4392919;32;20097;-61
2023/08/30 09:07:34;;;;;;;0.45;0.45;;;17.90;99.90;;;;;;4389999;32;20105;-62
2023/08/30 09:10:00;;;;;;;0.40;0.40;;;17.90;99.90;;;;;;4394064;32;20242;-62
2023/08/30 09:12:25;;;;;;;0.45;0.45;;;18.00;99.90;;;;;;4394586;32;20096;-61
2023/08/30 09:14:55;;;;;;;0.35;0.35;;;17.90;99.90;;;;;;4384536;32;20995;-62
2023/08/30 09:17:21;;;;;;;0.30;0.30;;;18.00;99.90;;;;;;4363172;32;20203;-62
2023/08/30 09:19:47;;;;;;;0.30;0.30;;;18.10;99.90;;;;;;4398163;32;20441;-63
2023/08/30 09:22:12;;;;;;;0.35;0.35;;;18.20;99.90;;;;;;4378789;32;20100;-62
2023/08/30 09:24:40;;;;;;;0.60;0.60;;;18.20;99.90;;;;;;4382048;32;22108;-62
2023/08/30 09:27:06;;;;;;;0.20;0.20;;;18.40;99.90;;;;;;4381254;32;20101;-62
2023/08/30 09:29:32;;;;;;;0.30;0.30;;;18.60;99.90;;;;;;4384668;32;20153;-62
2023/08/30 09:31:58;;;;;;;0.30;0.30;;;18.70;99.90;;;;;;4391238;32;20598;-62
2023/08/30 09:34:25;;;;;;;0.30;0.30;;;18.70;99.90;;;;;;4387368;32;20125;-63
2023/08/30 09:36:51;;;;;;;0.30;0.30;;;18.70;99.90;;;;;;4436208;32;20089;-62
2023/08/30 09:39:16;;;;;;;0.20;0.20;;;18.80;99.90;;;;;;4427768;32;20109;-63
2023/08/30 09:41:47;;;;;;;0.30;0.30;;;19.00;99.90;;;;;;4434551;32;20137;-63
2023/08/30 09:44:14;;;;;;;0.30;0.30;;;19.10;99.90;;;;;;4418080;32;20093;-63
2023/08/30 09:46:44;;;;;;;0.30;0.30;;;19.00;99.90;;;;;;4430228;32;20148;-63
2023/08/30 09:49:10;;;;;;;0.68;0.68;;;19.00;99.90;;;;;;4441256;26;20113;-75
2023/08/30 09:51:42;;;;;;;0.40;0.40;;;19.20;99.90;;;;;;4395966;32;21296;-74
2023/08/30 09:54:15;;;;;;;0.30;0.30;;;19.30;99.90;;;;;;4404903;32;20108;-74
2023/08/30 09:56:41;;;;;;;0.30;0.30;;;19.40;99.90;;;;;;4393522;32;20133;-74
2023/08/30 09:59:07;;;;;;;0.40;0.40;;;19.50;99.90;;;;;;4407306;32;20125;-74
2023/08/30 10:01:34;;;;;;;0.32;0.32;;;19.60;99.90;;;;;;4392475;32;20403;-74
2023/08/30 10:04:03;;;;;;;0.30;0.30;;;19.50;99.90;;;;;;4390422;32;21579;-74
2023/08/30 10:06:29;;;;;;;0.52;0.52;;;19.50;99.90;;;;;;4393414;32;20151;-74
2023/08/30 10:08:56;;;;;;;0.73;0.62;;;19.70;99.90;;;;;;4384782;32;20097;-74
2023/08/30 10:11:24;;;;;;;0.30;0.30;;;20.00;99.90;;;;;;4395499;32;20219;-73
2023/08/30 10:13:52;;;;;;;0.15;0.15;;;20.10;99.90;;;;;;4402090;32;20110;-76
2023/08/30 10:16:22;;;;;;;0.68;0.68;;;20.00;99.90;;;;;;4395592;32;20125;-75
2023/08/30 10:18:52;;;;;;;0.50;0.50;;;20.10;99.90;;;;;;4384909;32;20226;-73
2023/08/30 10:21:19;;;;;;;0.52;0.45;;;20.10;99.90;;;;;;4392343;32;21230;-75
2023/08/30 10:23:47;;;;;;;0.30;0.30;;;20.10;99.90;;;;;;4386341;32;20097;-74
2023/08/30 10:26:14;;;;;;;0.25;0.25;;;20.10;99.90;;;;;;4395137;32;20429;-75
2023/08/30 10:28:42;;;;;;;0.40;0.40;;;20.20;99.90;;;;;;4395752;32;20527;-76
2023/08/30 10:31:08;;;;;;;8.85;0.73;;;20.30;99.90;;;;;;4404304;32;20101;-74
2023/08/30 10:33:48;;;;;;;0.20;0.20;;;20.10;99.90;;;;;;4399134;32;20093;-75
2023/08/30 10:36:21;;;;;;;0.60;0.60;;;20.20;99.90;;;;;;4394098;32;20105;-74
2023/08/30 10:38:50;;;;;;;0.28;0.28;;;20.30;99.90;;;;;;4407096;32;20098;-76
2023/08/30 10:41:20;;;;;;;1.08;0.43;;;20.50;99.90;;;;;;4406865;32;20119;-74
2023/08/30 10:43:51;;;;;;;0.40;0.40;;;20.50;99.90;;;;;;4395691;32;20531;-73
2023/08/30 10:46:17;;;;;;;0.20;0.20;;;20.70;99.90;;;;;;4405197;32;20304;-72
2023/08/30 10:48:43;;;;;;;0.30;0.30;;;20.60;99.90;;;;;;4389088;32;20310;-71
2023/08/30 10:51:37;;;;;;;0.10;0.10;;;20.80;99.90;;;;;;4400934;32;20125;-73
2023/08/30 10:54:12;;;;;;;0.40;0.40;;;20.60;99.90;;;;;;4391351;32;20125;-72
2023/08/30 10:57:00;;;;;;;0.30;0.30;;;20.40;99.90;;;;;;4398963;32;20126;-71
2023/08/30 10:59:27;;;;;;;0.65;0.30;;;20.70;99.90;;;;;;4384749;32;20145;-72
2023/08/30 11:01:53;;;;;;;0.20;0.20;;;20.80;99.90;;;;;;4402306;32;20184;-72
2023/08/30 11:04:21;;;;;;;0.43;0.40;;;20.80;99.90;;;;;;4396982;32;21054;-72
2023/08/30 11:06:49;;;;;;;0.30;0.30;;;20.90;99.90;;;;;;4398718;32;20109;-72
2023/08/30 11:09:18;;;;;;;0.20;0.20;;;20.90;99.90;;;;;;4399232;32;20130;-71
2023/08/30 11:11:45;;;;;;;0.35;0.28;;;20.90;99.90;;;;;;4400769;32;20089;-71
2023/08/30 11:14:10;;;;;;;0.30;0.30;;;20.90;99.90;;;;;;4397530;32;20094;-72
2023/08/30 11:16:37;;;;;;;0.20;0.20;;;20.90;99.90;;;;;;4391823;32;25557;-71
2023/08/30 11:19:03;;;;;;;0.28;0.28;;;21.00;99.90;;;;;;4384295;32;20085;-72
2023/08/30 11:21:34;;;;;;;0.25;0.25;;;21.00;99.90;;;;;;4386748;32;20165;-72
2023/08/30 11:24:00;;;;;;;0.30;0.30;;;20.90;99.90;;;;;;4394634;32;20098;-72
2023/08/30 11:26:25;;;;;;;0.30;0.30;;;21.00;99.90;;;;;;4394752;32;21253;-72
2023/08/30 11:28:52;;;;;;;0.30;0.30;;;21.00;99.90;;;;;;4400771;32;20381;-73
2023/08/30 11:31:27;;;;;;;0.20;0.20;;;20.80;99.90;;;;;;4384618;32;20097;-72
2023/08/30 11:33:55;;;;;;;0.30;0.30;;;20.80;99.90;;;;;;4391448;32;20097;-73
2023/08/30 11:36:22;;;;;;;1.85;0.85;;;20.70;99.90;;;;;;4386691;32;20082;-72
2023/08/30 11:38:49;;;;;;;0.30;0.30;;;20.60;99.90;;;;;;4381369;32;20097;-73
2023/08/30 11:41:14;;;;;;;0.20;0.20;;;20.70;99.90;;;;;;4383245;32;20094;-73
2023/08/30 11:43:40;;;;;;;0.30;0.30;;;20.70;99.90;;;;;;4372660;32;20868;-73
2023/08/30 11:46:05;;;;;;;0.50;0.50;;;20.80;99.90;;;;;;4380148;32;20109;-74
2023/08/30 11:48:32;;;;;;;1.45;0.95;;;20.90;99.90;;;;;;4367668;32;88941;-74
2023/08/30 11:50:58;;;;;;;0.20;0.20;;;21.10;99.90;;;;;;4389098;32;20227;-73
2023/08/30 11:53:24;;;;;;;0.80;0.75;;;21.10;99.90;;;;;;4398438;32;20156;-73
2023/08/30 11:55:50;;;;;;;0.30;0.30;;;21.30;99.90;;;;;;4388581;32;20225;-74
2023/08/30 11:58:18;;;;;;;0.17;0.17;;;21.30;99.90;;;;;;4393695;32;20108;-73
2023/08/30 12:00:49;;;;;;;0.10;0.10;;;21.20;99.90;;;;;;4388244;32;20117;-73
2023/08/30 12:03:15;;;;;;;0.30;0.30;;;21.10;99.90;;;;;;4399382;32;20600;-72
2023/08/30 12:05:46;;;;;;;0.20;0.20;;;20.70;99.90;;;;;;4390019;32;20110;-73
2023/08/30 12:08:21;;;;;;;0.30;0.30;;;20.50;99.90;;;;;;4397563;32;20106;-73
2023/08/30 12:10:47;;;;;;;0.30;0.30;;;20.40;99.90;;;;;;4393755;32;20315;-73
2023/08/30 12:13:29;;;;;;;0.30;0.30;;;20.30;99.90;;;;;;4393560;32;20081;-73
2023/08/30 12:15:57;;;;;;;0.45;0.45;;;20.20;99.90;;;;;;4381284;32;20111;-72
2023/08/30 12:18:27;;;;;;;0.40;0.40;;;20.10;99.90;;;;;;4394482;32;20133;-73
2023/08/30 12:20:57;;;;;;;0.25;0.25;;;20.00;99.90;;;;;;4391119;32;20061;-74
2023/08/30 12:23:24;;;;;;;0.37;0.37;;;20.00;99.90;;;;;;4391178;32;21272;-72
2023/08/30 12:26:05;;;;;;;0.30;0.30;;;20.00;99.90;;;;;;4394205;32;20109;-73
2023/08/30 12:28:33;;;;;;;0.40;0.40;;;20.00;99.90;;;;;;4390218;32;20097;-73
2023/08/30 12:30:59;;;;;;;0.30;0.30;;;20.00;99.90;;;;;;4376254;32;20336;-72
2023/08/30 12:33:26;;;;;;;0.35;0.35;;;20.00;99.90;;;;;;4384666;32;20097;-74
2023/08/30 12:35:52;;;;;;;0.30;0.30;;;20.20;99.90;;;;;;4390970;32;20088;-74
2023/08/30 12:38:18;;;;;;;1.30;0.80;;;20.30;99.90;;;;;;4380582;32;20358;-74
2023/08/30 12:40:45;;;;;;;0.30;0.30;;;20.40;99.90;;;;;;4395012;32;20114;-74
2023/08/30 12:43:11;;;;;;;13.18;0.45;;;20.60;99.90;;;;;;4401146;32;20073;-75
2023/08/30 12:45:41;;;;;;;0.30;0.30;;;20.80;99.90;;;;;;4401480;32;20089;-72